createdAt,value
2022-09-23T00:01:15.116Z,6.88
2022-09-23T00:03:45.549Z,6.87
2022-09-23T00:06:18.243Z,6.90
2022-09-23T00:08:45.143Z,6.87
2022-09-23T00:11:17.481Z,6.83
2022-09-23T00:13:46.206Z,6.71
2022-09-23T00:16:19.724Z,6.64
2022-09-23T00:18:46.529Z,6.60
2022-09-23T00:21:14.736Z,6.54
2022-09-23T00:23:43.012Z,6.52
2022-09-23T00:26:12.868Z,6.48
2022-09-23T00:28:40.624Z,6.44
2022-09-23T00:31:10.422Z,6.39
2022-09-23T00:33:37.442Z,6.34
2022-09-23T00:36:07.213Z,6.25
2022-09-23T00:38:34.239Z,6.24
2022-09-23T00:41:01.038Z,6.17
2022-09-23T00:43:42.891Z,6.15
2022-09-23T00:46:14.233Z,6.07
2022-09-23T00:48:43.355Z,6.03
2022-09-23T00:51:17.943Z,5.90
2022-09-23T00:53:48.581Z,5.99
2022-09-23T00:56:15.995Z,5.95
2022-09-23T00:58:46.857Z,5.92
2022-09-23T01:01:14.492Z,5.98
2022-09-23T01:03:45.808Z,5.90
2022-09-23T01:06:13.370Z,5.85
2022-09-23T01:08:42.979Z,5.83
2022-09-23T01:11:14.774Z,5.79
2022-09-23T01:14:05.996Z,5.73
2022-09-23T01:16:44.109Z,5.67
2022-09-23T01:19:47.861Z,5.70
2022-09-23T01:22:21.791Z,5.73
2022-09-23T01:24:59.933Z,5.70
2022-09-23T01:27:36.554Z,5.72
2022-09-23T01:30:17.972Z,5.61
2022-09-23T01:33:05.037Z,5.52
2022-09-23T01:35:56.216Z,5.48
2022-09-23T01:39:00.259Z,5.46
2022-09-23T01:41:45.561Z,5.42
2022-09-23T01:44:21.593Z,5.44
2022-09-23T01:46:59.867Z,5.42
2022-09-23T01:49:37.764Z,5.41
2022-09-23T01:52:15.708Z,5.41
2022-09-23T01:55:10.034Z,5.36
2022-09-23T01:58:01.105Z,5.38
2022-09-23T02:00:32.039Z,5.36
2022-09-23T02:03:05.996Z,5.35
2022-09-23T02:05:38.182Z,5.25
2022-09-23T02:08:08.813Z,5.34
2022-09-23T02:10:45.618Z,5.32
2022-09-23T02:13:20.619Z,5.24
2022-09-23T02:15:51.905Z,5.20
2022-09-23T02:18:28.943Z,5.21
2022-09-23T02:21:03.470Z,5.04
2022-09-23T02:23:36.811Z,5.08
2022-09-23T02:26:26.953Z,5.04
2022-09-23T02:29:08.130Z,5.00
2022-09-23T02:31:55.168Z,4.93
2022-09-23T02:34:55.663Z,4.94
2022-09-23T02:37:54.463Z,4.91
2022-09-23T02:40:40.869Z,4.93
2022-09-23T02:43:15.129Z,4.87
2022-09-23T02:45:41.890Z,4.80
2022-09-23T02:48:34.615Z,4.82
2022-09-23T02:51:03.667Z,4.80
2022-09-23T02:53:33.963Z,4.80
2022-09-23T02:56:02.210Z,4.80
2022-09-23T02:58:30.004Z,4.80
2022-09-23T03:01:11.638Z,4.74
2022-09-23T03:03:53.860Z,4.69
2022-09-23T03:06:26.696Z,4.74
2022-09-23T03:09:01.183Z,4.70
2022-09-23T03:11:28.503Z,4.68
2022-09-23T03:14:19.838Z,4.72
2022-09-23T03:16:59.193Z,4.71
2022-09-23T03:19:34.831Z,4.68
2022-09-23T03:22:12.640Z,4.61
2022-09-23T03:24:44.901Z,4.61
2022-09-23T03:27:18.764Z,4.56
2022-09-23T03:29:51.238Z,4.52
2022-09-23T03:32:21.867Z,4.51
2022-09-23T03:34:52.260Z,4.51
2022-09-23T03:37:44.156Z,4.48
2022-09-23T03:40:35.313Z,4.45
2022-09-23T03:43:04.547Z,4.36
2022-09-23T03:45:34.021Z,4.37
2022-09-23T03:48:01.515Z,4.32
2022-09-23T03:50:28.592Z,4.33
2022-09-23T03:52:55.928Z,4.31
2022-09-23T03:55:22.770Z,4.28
2022-09-23T03:57:49.883Z,4.26
2022-09-23T04:00:16.772Z,4.28
2022-09-23T04:02:44.412Z,4.27
2022-09-23T04:05:13.387Z,4.23
2022-09-23T04:07:41.105Z,4.12
2022-09-23T04:10:10.030Z,4.16
2022-09-23T04:12:37.830Z,4.11
2022-09-23T04:15:05.162Z,4.11
2022-09-23T04:17:31.980Z,4.09
2022-09-23T04:19:58.878Z,3.99
2022-09-23T04:22:27.585Z,4.03
2022-09-23T04:24:54.790Z,3.98
2022-09-23T04:27:21.675Z,3.99
2022-09-23T04:29:48.443Z,3.96
2022-09-23T04:32:15.315Z,3.98
2022-09-23T04:34:43.037Z,3.97
2022-09-23T04:37:09.838Z,3.91
2022-09-23T04:39:36.598Z,3.93
2022-09-23T04:42:04.338Z,3.91
2022-09-23T04:44:31.202Z,3.91
2022-09-23T04:46:58.529Z,3.90
2022-09-23T04:49:26.270Z,3.86
2022-09-23T04:51:53.153Z,3.85
2022-09-23T04:54:20.031Z,3.82
2022-09-23T04:56:46.882Z,3.91
2022-09-23T04:59:15.822Z,3.95
2022-09-23T05:01:43.657Z,3.96
2022-09-23T05:04:13.967Z,3.99
2022-09-23T05:06:45.106Z,4.04
2022-09-23T05:09:16.675Z,4.06
2022-09-23T05:11:43.987Z,4.14
2022-09-23T05:14:11.004Z,4.22
2022-09-23T05:16:37.849Z,4.31
2022-09-23T05:19:05.484Z,4.37
2022-09-23T05:21:32.368Z,4.41
2022-09-23T05:24:00.869Z,4.45
2022-09-23T05:26:30.920Z,4.56
2022-09-23T05:28:58.521Z,4.65
2022-09-23T05:31:30.075Z,4.69
2022-09-23T05:33:58.977Z,4.80
2022-09-23T05:36:27.931Z,4.90
2022-09-23T05:38:56.896Z,5.03
2022-09-23T05:41:25.322Z,5.12
2022-09-23T05:43:54.026Z,5.21
2022-09-23T05:46:23.428Z,5.31
2022-09-23T05:48:51.244Z,5.38
2022-09-23T05:51:26.423Z,5.49
2022-09-23T05:53:58.342Z,5.58
2022-09-23T05:56:27.584Z,5.68
2022-09-23T05:58:56.584Z,5.73
2022-09-23T06:01:28.259Z,5.85
2022-09-23T06:03:57.157Z,5.92
2022-09-23T06:06:36.255Z,6.05
2022-09-23T06:09:04.537Z,6.13
2022-09-23T06:11:32.930Z,6.29
2022-09-23T06:14:09.755Z,6.38
2022-09-23T06:16:36.782Z,6.43
2022-09-23T06:19:07.311Z,6.61
2022-09-23T06:21:36.331Z,6.77
2022-09-23T06:24:04.093Z,6.87
2022-09-23T06:26:33.925Z,7.01
2022-09-23T06:29:04.769Z,7.19
2022-09-23T06:31:33.044Z,7.31
2022-09-23T06:34:09.677Z,7.44
2022-09-23T06:36:43.973Z,7.64
2022-09-23T06:39:15.781Z,7.85
2022-09-23T06:41:44.100Z,8.00
2022-09-23T06:44:11.041Z,8.19
2022-09-23T06:46:37.942Z,8.33
2022-09-23T06:49:04.848Z,8.54
2022-09-23T06:51:32.115Z,8.60
2022-09-23T06:53:59.042Z,8.94
2022-09-23T06:56:25.979Z,9.15
2022-09-23T06:58:53.003Z,9.39
2022-09-23T07:01:20.072Z,9.63
2022-09-23T07:03:48.434Z,9.87
2022-09-23T07:06:17.142Z,10.15
2022-09-23T07:08:47.178Z,10.36
2022-09-23T07:11:15.433Z,10.62
2022-09-23T07:13:42.756Z,10.75
2022-09-23T07:16:11.138Z,11.04
2022-09-23T07:18:39.016Z,11.27
2022-09-23T07:21:15.240Z,11.48
2022-09-23T07:23:43.327Z,11.52
2022-09-23T07:26:10.400Z,11.88
2022-09-23T07:28:38.400Z,12.10
2022-09-23T07:31:07.871Z,12.36
2022-09-23T07:33:37.389Z,12.80
2022-09-23T07:36:10.727Z,13.01
2022-09-23T07:38:41.499Z,12.96
2022-09-23T07:41:13.682Z,13.16
2022-09-23T07:43:41.211Z,13.80
2022-09-23T07:46:11.199Z,14.05
2022-09-23T07:48:38.974Z,14.07
2022-09-23T07:51:21.894Z,14.04
2022-09-23T07:53:50.034Z,14.34
2022-09-23T07:56:19.396Z,14.45
2022-09-23T07:59:00.170Z,14.76
2022-09-23T08:01:33.850Z,15.16
2022-09-23T08:04:04.138Z,14.80
2022-09-23T08:06:31.677Z,15.36
2022-09-23T08:09:00.079Z,15.40
2022-09-23T08:11:28.271Z,15.34
2022-09-23T08:13:55.108Z,15.52
2022-09-23T08:16:22.209Z,16.02
2022-09-23T08:18:49.567Z,16.54
2022-09-23T08:21:23.172Z,16.66
2022-09-23T08:23:50.803Z,16.60
2022-09-23T08:26:21.583Z,16.15
2022-09-23T08:28:50.303Z,15.94
2022-09-23T08:31:17.311Z,16.51
2022-09-23T08:33:44.510Z,17.05
2022-09-23T08:36:11.602Z,17.18
2022-09-23T08:38:38.590Z,17.12
2022-09-23T08:41:17.302Z,16.60
2022-09-23T08:43:49.989Z,17.58
2022-09-23T08:46:24.131Z,18.00
2022-09-23T08:48:52.395Z,18.79
2022-09-23T08:51:51.337Z,19.39
2022-09-23T08:54:18.343Z,17.45
2022-09-23T08:56:52.256Z,17.35
2022-09-23T08:59:37.050Z,17.24
2022-09-23T09:02:20.278Z,17.76
2022-09-23T09:04:54.513Z,17.72
2022-09-23T09:07:36.577Z,18.03
2022-09-23T09:10:15.238Z,17.67
2022-09-23T09:12:51.341Z,17.62
2022-09-23T09:15:25.153Z,18.18
2022-09-23T09:18:11.431Z,18.01
2022-09-23T09:20:59.644Z,18.65
2022-09-23T09:23:38.801Z,18.89
2022-09-23T09:26:06.428Z,19.59
2022-09-23T09:28:45.148Z,20.04
2022-09-23T09:31:12.122Z,20.31
2022-09-23T09:33:58.297Z,19.49
2022-09-23T09:36:40.325Z,19.32
2022-09-23T09:39:16.538Z,19.34
2022-09-23T09:41:49.832Z,19.68
2022-09-23T09:44:45.077Z,20.46
2022-09-23T09:47:34.287Z,20.73
2022-09-23T09:50:04.223Z,20.20
2022-09-23T09:52:31.828Z,20.27
2022-09-23T09:55:13.844Z,20.21
2022-09-23T09:57:53.335Z,20.61
2022-09-23T10:00:26.412Z,20.92
2022-09-23T10:03:01.122Z,21.26
2022-09-23T10:05:49.215Z,20.61
2022-09-23T10:08:26.094Z,19.42
2022-09-23T10:11:01.478Z,18.78
2022-09-23T10:13:30.169Z,20.52
2022-09-23T10:16:04.073Z,21.02
2022-09-23T10:18:38.161Z,19.72
2022-09-23T10:21:13.328Z,19.87
2022-09-23T10:23:48.667Z,18.97
2022-09-23T10:26:18.626Z,18.35
2022-09-23T10:28:55.921Z,17.88
2022-09-23T10:31:25.031Z,17.46
2022-09-23T10:33:55.586Z,17.34
2022-09-23T10:36:22.460Z,17.83
2022-09-23T10:38:55.038Z,17.91
2022-09-23T10:41:54.667Z,17.82
2022-09-23T10:45:02.712Z,17.69
2022-09-23T10:47:42.004Z,17.70
2022-09-23T10:50:29.710Z,18.23
2022-09-23T10:53:05.091Z,18.67
2022-09-23T10:56:01.075Z,18.89
2022-09-23T10:58:50.487Z,18.51
2022-09-23T11:01:17.398Z,19.55
2022-09-23T11:04:06.074Z,20.09
2022-09-23T11:06:58.661Z,21.89
2022-09-23T11:10:18.451Z,22.14
2022-09-23T11:13:15.947Z,23.02
2022-09-23T11:16:15.118Z,22.43
2022-09-23T11:18:56.838Z,23.97
2022-09-23T11:21:58.397Z,22.41
2022-09-23T11:24:58.423Z,24.57
2022-09-23T11:27:57.275Z,24.51
2022-09-23T11:30:40.393Z,25.23
2022-09-23T11:33:27.998Z,24.92
2022-09-23T11:36:01.960Z,24.93
2022-09-23T11:38:35.546Z,24.75
2022-09-23T11:41:20.222Z,23.56
2022-09-23T11:43:52.356Z,24.12
2022-09-23T11:47:08.142Z,23.60
2022-09-23T11:49:53.852Z,21.38
2022-09-23T11:52:27.663Z,20.49
2022-09-23T11:55:08.085Z,20.16
2022-09-23T11:57:49.289Z,19.19
2022-09-23T12:00:20.808Z,18.84
2022-09-23T12:03:38.218Z,18.82
2022-09-23T12:06:16.530Z,18.47
2022-09-23T12:08:44.489Z,17.90
2022-09-23T12:11:23.327Z,18.29
2022-09-23T12:14:27.139Z,18.11
2022-09-23T12:16:58.202Z,18.57
2022-09-23T12:19:43.892Z,18.53
2022-09-23T12:22:39.412Z,18.69
2022-09-23T12:25:10.399Z,18.78
2022-09-23T12:27:50.457Z,19.02
2022-09-23T12:30:25.435Z,18.82
2022-09-23T12:32:53.010Z,19.32
2022-09-23T12:35:24.308Z,18.75
2022-09-23T12:37:52.745Z,19.40
2022-09-23T12:40:43.868Z,21.30
2022-09-23T12:43:31.467Z,22.96
2022-09-23T12:46:27.375Z,25.45
2022-09-23T12:48:58.114Z,24.83
2022-09-23T12:51:30.394Z,24.29
2022-09-23T12:54:04.457Z,23.58
2022-09-23T12:56:31.224Z,24.38
2022-09-23T12:59:26.099Z,25.39
2022-09-23T13:01:54.190Z,26.79
2022-09-23T13:05:01.834Z,27.25
2022-09-23T13:07:34.196Z,26.85
2022-09-23T13:10:09.129Z,25.90
2022-09-23T13:12:39.481Z,26.25
2022-09-23T13:15:17.276Z,23.96
2022-09-23T13:17:44.868Z,23.02
2022-09-23T13:20:21.177Z,22.77
2022-09-23T13:22:54.023Z,21.76
2022-09-23T13:25:29.425Z,21.31
2022-09-23T13:28:00.544Z,20.99
2022-09-23T13:30:27.995Z,20.71
2022-09-23T13:33:13.974Z,20.78
2022-09-23T13:35:50.718Z,20.57
2022-09-23T13:38:26.186Z,20.40
2022-09-23T13:41:21.589Z,20.38
2022-09-23T13:43:52.118Z,20.01
2022-09-23T13:46:24.574Z,19.76
2022-09-23T13:48:54.765Z,19.44
2022-09-23T13:51:27.091Z,19.25
2022-09-23T13:53:55.691Z,19.22
2022-09-23T13:56:24.100Z,19.05
2022-09-23T13:58:52.326Z,18.89
2022-09-23T14:01:35.939Z,19.09
2022-09-23T14:04:03.078Z,19.08
2022-09-23T14:06:31.608Z,18.93
2022-09-23T14:09:01.554Z,18.90
2022-09-23T14:11:32.045Z,18.90
2022-09-23T14:14:03.567Z,18.85
2022-09-23T14:16:30.438Z,18.83
2022-09-23T14:19:00.609Z,18.46
2022-09-23T14:21:27.395Z,18.38
2022-09-23T14:23:54.339Z,18.20
2022-09-23T14:26:24.130Z,18.03
2022-09-23T14:28:52.313Z,18.16
2022-09-23T14:31:19.362Z,18.14
2022-09-23T14:33:46.994Z,18.01
2022-09-23T14:36:35.909Z,18.01
2022-09-23T14:39:08.551Z,17.99
2022-09-23T14:41:38.675Z,17.94
2022-09-23T14:44:07.523Z,17.77
2022-09-23T14:46:37.926Z,17.92
2022-09-23T14:49:11.817Z,17.80
2022-09-23T14:51:45.363Z,17.67
2022-09-23T14:54:34.766Z,17.69
2022-09-23T14:57:28.029Z,17.77
2022-09-23T15:00:06.750Z,17.75
2022-09-23T15:02:39.359Z,17.72
2022-09-23T15:05:23.778Z,17.70
2022-09-23T15:07:56.065Z,17.48
2022-09-23T15:10:27.850Z,17.50
2022-09-23T15:13:05.311Z,17.48
2022-09-23T15:15:32.372Z,17.44
2022-09-23T15:18:08.103Z,17.42
2022-09-23T15:20:35.984Z,17.36
2022-09-23T15:23:02.810Z,17.38
2022-09-23T15:25:35.604Z,17.29
2022-09-23T15:28:08.314Z,17.17
2022-09-23T15:30:36.234Z,17.09
2022-09-23T15:33:03.104Z,17.07
2022-09-23T15:35:32.270Z,17.09
2022-09-23T15:38:01.724Z,17.12
2022-09-23T15:40:34.256Z,17.15
2022-09-23T15:43:20.734Z,17.19
2022-09-23T15:45:54.363Z,17.25
2022-09-23T15:48:27.460Z,17.25
2022-09-23T15:50:54.807Z,17.27
2022-09-23T15:53:27.834Z,17.19
2022-09-23T15:55:54.655Z,17.13
2022-09-23T15:58:27.491Z,17.12
2022-09-23T16:00:57.152Z,17.02
2022-09-23T16:03:28.513Z,16.97
2022-09-23T16:06:00.131Z,16.88
2022-09-23T16:08:28.253Z,16.75
2022-09-23T16:10:55.460Z,16.67
2022-09-23T16:13:23.051Z,16.40
2022-09-23T16:15:50.115Z,16.41
2022-09-23T16:18:17.065Z,16.27
2022-09-23T16:20:45.882Z,16.13
2022-09-23T16:23:34.534Z,15.95
2022-09-23T16:26:25.013Z,15.80
2022-09-23T16:28:54.837Z,15.60
2022-09-23T16:31:25.247Z,15.41
2022-09-23T16:33:53.293Z,15.25
2022-09-23T16:36:37.868Z,15.01
2022-09-23T16:39:07.485Z,14.89
2022-09-23T16:41:34.346Z,14.74
2022-09-23T16:44:04.450Z,14.59
2022-09-23T16:46:31.490Z,14.46
2022-09-23T16:48:58.872Z,14.34
2022-09-23T16:51:31.700Z,14.18
2022-09-23T16:54:00.094Z,14.07
2022-09-23T16:56:31.166Z,13.96
2022-09-23T16:58:58.051Z,13.87
2022-09-23T17:01:46.384Z,13.73
2022-09-23T17:04:14.450Z,13.68
2022-09-23T17:06:45.112Z,13.58
2022-09-23T17:09:12.254Z,13.46
2022-09-23T17:11:39.125Z,13.21
2022-09-23T17:14:06.976Z,13.08
2022-09-23T17:16:35.247Z,12.97
2022-09-23T17:19:10.579Z,12.95
2022-09-23T17:21:37.540Z,12.83
2022-09-23T17:24:04.833Z,12.72
2022-09-23T17:26:32.229Z,12.62
2022-09-23T17:29:00.371Z,12.56
2022-09-23T17:31:27.470Z,12.45
2022-09-23T17:33:54.719Z,12.36
2022-09-23T17:36:22.084Z,12.27
2022-09-23T17:38:53.638Z,12.21
2022-09-23T17:41:20.853Z,12.20
2022-09-23T17:43:48.416Z,12.14
2022-09-23T17:46:19.286Z,12.05
2022-09-23T17:48:46.715Z,11.93
2022-09-23T17:51:16.136Z,11.87
2022-09-23T17:53:45.518Z,11.82
2022-09-23T17:56:21.225Z,11.68
2022-09-23T17:58:49.536Z,11.57
2022-09-23T18:01:20.751Z,11.49
2022-09-23T18:03:48.518Z,11.44
2022-09-23T18:06:20.881Z,11.35
2022-09-23T18:08:49.566Z,11.31
2022-09-23T18:11:27.610Z,11.22
2022-09-23T18:14:00.376Z,11.17
2022-09-23T18:16:30.839Z,11.05
2022-09-23T18:19:00.460Z,10.99
2022-09-23T18:21:30.935Z,10.94
2022-09-23T18:24:15.644Z,10.94
2022-09-23T18:26:45.857Z,10.80
2022-09-23T18:31:39.770Z,10.68
2022-09-23T18:34:11.150Z,10.65
2022-09-23T18:36:38.168Z,10.59
2022-09-23T18:39:05.683Z,10.56
2022-09-23T18:41:32.869Z,10.53
2022-09-23T18:44:00.143Z,10.45
2022-09-23T18:46:30.208Z,10.25
2022-09-23T18:49:16.771Z,10.18
2022-09-23T18:51:55.802Z,10.08
2022-09-23T18:54:24.313Z,10.14
2022-09-23T18:56:52.851Z,10.07
2022-09-23T18:59:23.868Z,10.02
2022-09-23T19:01:51.168Z,9.93
2022-09-23T19:04:20.303Z,9.90
2022-09-23T19:06:47.977Z,9.91
2022-09-23T19:09:16.370Z,9.87
2022-09-23T19:11:44.425Z,9.81
2022-09-23T19:14:11.914Z,9.71
2022-09-23T19:16:41.200Z,9.69
2022-09-23T19:19:08.771Z,9.62
2022-09-23T19:21:37.061Z,9.58
2022-09-23T19:24:06.478Z,9.47
2022-09-23T19:26:37.588Z,9.44
2022-09-23T19:29:08.218Z,9.43
2022-09-23T19:31:40.078Z,9.30
2022-09-23T19:34:11.585Z,9.31
2022-09-23T19:36:42.241Z,9.27
2022-09-23T19:39:16.620Z,9.23
2022-09-23T19:41:44.179Z,9.15
2022-09-23T19:44:11.852Z,9.09
2022-09-23T19:46:40.896Z,9.00
2022-09-23T19:49:08.275Z,9.03
2022-09-23T19:51:35.628Z,8.95
2022-09-23T19:54:04.860Z,8.92
2022-09-23T19:56:33.236Z,8.90
2022-09-23T19:59:03.041Z,8.84
2022-09-23T20:01:32.012Z,8.83
2022-09-23T20:03:59.764Z,8.78
2022-09-23T20:06:31.913Z,8.80
2022-09-23T20:09:00.894Z,8.80
2022-09-23T20:11:28.822Z,8.80
2022-09-23T20:14:01.330Z,8.70
2022-09-23T20:16:32.180Z,8.65
2022-09-23T20:19:00.001Z,8.57
2022-09-23T20:21:28.206Z,8.55
2022-09-23T20:23:55.323Z,8.51
2022-09-23T20:26:40.885Z,8.44
2022-09-23T20:29:08.982Z,8.30
2022-09-23T20:31:36.115Z,8.35
2022-09-23T20:34:05.695Z,8.30
2022-09-23T20:36:34.064Z,8.31
2022-09-23T20:39:04.048Z,8.24
2022-09-23T20:41:33.628Z,8.19
2022-09-23T20:44:00.681Z,8.12
2022-09-23T20:46:28.763Z,8.13
2022-09-23T20:48:56.880Z,8.07
2022-09-23T20:51:24.820Z,8.02
2022-09-23T20:53:52.957Z,7.94
2022-09-23T20:56:23.381Z,7.95
2022-09-23T20:58:52.530Z,7.93
2022-09-23T21:01:19.485Z,7.91
2022-09-23T21:03:50.166Z,7.88
2022-09-23T21:06:19.471Z,7.85
2022-09-23T21:08:46.714Z,7.79
2022-09-23T21:11:17.940Z,7.73
2022-09-23T21:13:46.316Z,7.67
2022-09-23T21:16:14.288Z,7.65
2022-09-23T21:18:41.120Z,7.62
2022-09-23T21:21:08.125Z,7.50
2022-09-23T21:23:38.037Z,7.46
2022-09-23T21:26:04.844Z,7.44
2022-09-23T21:28:33.425Z,7.33
2022-09-23T21:31:02.318Z,7.31
2022-09-23T21:33:30.439Z,7.31
2022-09-23T21:36:03.441Z,7.27
2022-09-23T21:38:33.630Z,7.21
2022-09-23T21:41:02.368Z,7.25
2022-09-23T21:43:33.271Z,7.25
2022-09-23T21:46:05.689Z,7.21
2022-09-23T21:48:34.840Z,7.14
2022-09-23T21:51:03.016Z,7.10
2022-09-23T21:53:31.722Z,7.04
2022-09-23T21:56:21.493Z,6.98
2022-09-23T21:58:48.974Z,7.03
2022-09-23T22:01:18.727Z,6.93
2022-09-23T22:04:08.133Z,6.93
2022-09-23T22:06:38.143Z,6.87
2022-09-23T22:09:08.920Z,6.85
2022-09-23T22:11:55.792Z,6.78
2022-09-23T22:14:25.526Z,6.78
2022-09-23T22:16:57.569Z,6.69
2022-09-23T22:19:26.652Z,6.61
2022-09-23T22:21:54.022Z,6.58
2022-09-23T22:24:20.829Z,6.53
2022-09-23T22:26:47.583Z,6.54
2022-09-23T22:29:34.588Z,6.53
2022-09-23T22:32:21.772Z,6.52
2022-09-23T22:34:51.043Z,6.46
2022-09-23T22:37:32.370Z,6.37
2022-09-23T22:39:59.169Z,6.37
2022-09-23T22:42:27.546Z,6.30
2022-09-23T22:44:55.629Z,6.29
2022-09-23T22:47:22.544Z,6.25
2022-09-23T22:49:52.326Z,6.28
2022-09-23T22:52:24.172Z,6.23
2022-09-23T22:54:52.223Z,6.21
2022-09-23T22:57:19.613Z,6.18
2022-09-23T22:59:50.253Z,6.15
2022-09-23T23:02:18.961Z,6.23
2022-09-23T23:04:49.850Z,6.18
2022-09-23T23:07:22.385Z,6.10
2022-09-23T23:09:50.617Z,6.06
2022-09-23T23:12:20.467Z,6.04
2022-09-23T23:14:48.238Z,5.98
2022-09-23T23:17:15.090Z,5.97
2022-09-23T23:19:41.909Z,5.89
2022-09-23T23:22:08.667Z,5.91
2022-09-23T23:24:35.419Z,5.86
2022-09-23T23:27:05.339Z,5.86
2022-09-23T23:29:32.223Z,5.83
2022-09-23T23:31:59.059Z,5.76
2022-09-23T23:34:25.961Z,5.72
2022-09-23T23:36:55.090Z,5.63
2022-09-23T23:39:24.029Z,5.65
2022-09-23T23:41:55.134Z,5.51
2022-09-23T23:44:23.910Z,5.52
2022-09-23T23:46:51.257Z,5.52
2022-09-23T23:49:18.126Z,5.51
2022-09-23T23:51:44.945Z,5.48
2022-09-23T23:54:12.511Z,5.42
2022-09-23T23:56:39.518Z,5.38
2022-09-23T23:59:06.530Z,5.34
